Deatsville, Kentucky
Current Conditions -  °F | °C
As of 10:56 PM on Tuesday 21 Oct 2014 (Local Time) from KSDF Reporting Station
Overcast Overcast  
Wind Chill: 55°   Ceiling: 5500
Heat Index: 55°   Visibility: 10mi
Dew Point: 42°   Wind: 9mph
Humidity: 62%   Direction: 10°N
Pressure: 30.15"   Gusts: NA
Location:  37.9212°N, 85.4864°W
Report Text: KSDF 220256Z 01008KT 10SM BKN055 OVC250 13/06 A3015 RMK AO2 SLP211 T01280056 53012
Loading
Personal Weather Stations






























Interactive Weather Map New forecast layout! Learn more

10-Day Weather Forecast

Advertisements
Track Severe Weather on mobile